createdAt,value
2022-08-07T00:01:44.163Z,100179.34
2022-08-07T00:04:09.599Z,100181.22
2022-08-07T00:06:45.579Z,100179.16
2022-08-07T00:09:20.833Z,100172.44
2022-08-07T00:11:55.288Z,100174.84
2022-08-07T00:14:25.415Z,100180.84
2022-08-07T00:16:53.170Z,100181.03
2022-08-07T00:20:01.019Z,100183.88
2022-08-07T00:22:24.491Z,100189.84
2022-08-07T00:25:11.071Z,100176.94
2022-08-07T00:27:53.445Z,100174.13
2022-08-07T00:30:27.075Z,100177.69
2022-08-07T00:32:59.799Z,100172.28
2022-08-07T00:35:30.500Z,100178.44
2022-08-07T00:37:59.533Z,100173.94
2022-08-07T00:40:39.488Z,100168.91
2022-08-07T00:44:01.780Z,100180.66
2022-08-07T00:45:59.148Z,100185.00
2022-08-07T00:48:32.157Z,100180.66
2022-08-07T00:51:02.938Z,100179.38
2022-08-07T00:53:39.053Z,100176.19
2022-08-07T00:56:18.922Z,100172.63
2022-08-07T00:58:46.960Z,100179.00
2022-08-07T01:01:18.756Z,100179.75
2022-08-07T01:03:56.438Z,100185.72
2022-08-07T01:06:29.352Z,100184.25
2022-08-07T01:08:58.587Z,100181.22
2022-08-07T01:12:23.538Z,100176.34
2022-08-07T01:14:28.592Z,100173.00
2022-08-07T01:16:57.595Z,100168.69
2022-08-07T01:19:32.580Z,100171.13
2022-08-07T01:22:03.092Z,100174.28
2022-08-07T01:24:36.543Z,100165.72
2022-08-07T01:27:12.455Z,100167.75
2022-08-07T01:29:50.621Z,100176.72
2022-08-07T01:32:23.012Z,100167.38
2022-08-07T01:34:53.968Z,100171.88
2022-08-07T01:37:22.697Z,100160.09
2022-08-07T01:39:53.590Z,100161.78
2022-08-07T01:42:40.219Z,100160.09
2022-08-07T01:45:18.033Z,100168.13
2022-08-07T01:48:29.552Z,100177.66
2022-08-07T01:50:42.876Z,100175.78
2022-08-07T01:53:21.007Z,100180.44
2022-08-07T01:56:11.152Z,100177.09
2022-08-07T01:58:49.153Z,100178.59
2022-08-07T02:01:58.929Z,100182.13
2022-08-07T02:04:14.188Z,100174.84
2022-08-07T02:06:47.707Z,100174.47
2022-08-07T02:09:51.975Z,100168.47
2022-08-07T02:12:17.780Z,100173.88
2022-08-07T02:14:59.081Z,100177.84
2022-08-07T02:17:40.538Z,100160.63
2022-08-07T02:20:19.831Z,100169.03
2022-08-07T02:22:55.571Z,100160.28
2022-08-07T02:26:10.340Z,100160.25
2022-08-07T02:28:24.703Z,100165.84
2022-08-07T02:30:57.640Z,100158.78
2022-08-07T02:33:41.869Z,100163.25
2022-08-07T02:36:29.071Z,100165.69
2022-08-07T02:39:16.230Z,100160.09
2022-08-07T02:41:54.329Z,100163.63
2022-08-07T02:44:34.432Z,100161.56
2022-08-07T02:47:05.391Z,100149.81
2022-08-07T02:49:57.795Z,100142.53
2022-08-07T02:52:32.383Z,100146.25
2022-08-07T02:55:27.359Z,100156.91
2022-08-07T02:57:59.802Z,100148.53
2022-08-07T03:00:30.294Z,100136.75
2022-08-07T03:03:00.693Z,100137.84
2022-08-07T03:05:38.146Z,100135.25
2022-08-07T03:08:10.648Z,100133.94
2022-08-07T03:10:47.026Z,100126.47
2022-08-07T03:13:20.229Z,100132.44
2022-08-07T03:15:56.217Z,100140.66
2022-08-07T03:18:34.953Z,100133.75
2022-08-07T03:21:11.266Z,100138.22
2022-08-07T03:24:19.761Z,100129.47
2022-08-07T03:26:33.749Z,100125.91
2022-08-07T03:29:11.050Z,100121.59
2022-08-07T03:31:46.224Z,100113.56
2022-08-07T03:34:22.328Z,100118.81
2022-08-07T03:36:57.450Z,100109.09
2022-08-07T03:39:59.025Z,100111.53
2022-08-07T03:42:20.064Z,100111.91
2022-08-07T03:44:53.336Z,100112.47
2022-08-07T03:47:23.252Z,100099.00
2022-08-07T03:49:52.259Z,100114.31
2022-08-07T03:52:29.069Z,100113.97
2022-08-07T03:55:06.740Z,100124.97
2022-08-07T03:59:07.309Z,100129.66
2022-08-07T04:00:35.604Z,100124.97
2022-08-07T04:03:05.764Z,100124.22
2022-08-07T04:05:42.367Z,100123.84
2022-08-07T04:08:21.296Z,100125.16
2022-08-07T04:10:54.000Z,100125.16
2022-08-07T04:14:33.016Z,100132.81
2022-08-07T04:16:32.532Z,100134.50
2022-08-07T04:19:14.599Z,100126.47
2022-08-07T04:21:59.335Z,100131.50
2022-08-07T04:24:39.031Z,100130.03
2022-08-07T04:27:20.598Z,100131.31
2022-08-07T04:30:02.285Z,100141.63
2022-08-07T04:32:58.581Z,100132.25
2022-08-07T04:35:35.125Z,100130.97
2022-08-07T04:38:09.234Z,100135.63
2022-08-07T04:40:51.617Z,100136.19
2022-08-07T04:44:09.556Z,100139.00
2022-08-07T04:46:59.677Z,100148.69
2022-08-07T04:50:03.560Z,100147.19
2022-08-07T04:52:51.237Z,100142.91
2022-08-07T04:58:13.927Z,100150.19
2022-08-07T04:59:18.569Z,100148.50
2022-08-07T05:02:09.229Z,100151.69
2022-08-07T05:04:59.732Z,100154.66
2022-08-07T05:07:48.209Z,100141.78
2022-08-07T05:10:27.044Z,100151.13
2022-08-07T05:14:44.754Z,100146.47
2022-08-07T05:16:04.518Z,100145.34
2022-08-07T05:18:44.245Z,100141.41
2022-08-07T05:21:18.539Z,100141.97
2022-08-07T05:24:13.177Z,100147.22
2022-08-07T05:26:41.915Z,100151.34
2022-08-07T05:29:16.760Z,100148.16
2022-08-07T05:31:52.846Z,100152.09
2022-08-07T05:34:27.734Z,100156.56
2022-08-07T05:37:01.472Z,100155.06
2022-08-07T05:40:05.902Z,100152.66
2022-08-07T05:42:33.904Z,100155.44
2022-08-07T05:45:25.665Z,100158.25
2022-08-07T05:48:01.313Z,100152.25
2022-08-07T05:50:34.379Z,100162.38
2022-08-07T05:53:04.124Z,100166.28
2022-08-07T05:56:02.975Z,100174.13
2022-08-07T05:58:35.966Z,100167.41
2022-08-07T06:01:14.350Z,100166.66
2022-08-07T06:03:57.210Z,100168.34
2022-08-07T06:06:35.758Z,100172.09
2022-08-07T06:09:06.411Z,100165.34
2022-08-07T06:11:40.285Z,100164.78
2022-08-07T06:14:20.559Z,100166.63
2022-08-07T06:16:55.866Z,100156.75
2022-08-07T06:19:57.513Z,100162.91
2022-08-07T06:22:24.129Z,100163.84
2022-08-07T06:25:06.473Z,100163.06
2022-08-07T06:27:44.490Z,100167.38
2022-08-07T06:30:37.378Z,100171.66
2022-08-07T06:33:22.644Z,100160.25
2022-08-07T06:36:12.082Z,100169.22
2022-08-07T06:38:59.515Z,100166.59
2022-08-07T06:42:00.716Z,100162.81
2022-08-07T06:45:07.253Z,100157.91
2022-08-07T06:47:57.404Z,100164.47
2022-08-07T06:50:33.344Z,100173.38
2022-08-07T06:53:49.163Z,100173.28
2022-08-07T06:56:01.431Z,100187.19
2022-08-07T06:58:35.787Z,100181.72
2022-08-07T07:01:14.388Z,100183.59
2022-08-07T07:03:49.244Z,100181.97
2022-08-07T07:06:26.208Z,100184.13
2022-08-07T07:08:55.272Z,100183.47
2022-08-07T07:12:08.622Z,100186.75
2022-08-07T07:14:19.194Z,100191.16
2022-08-07T07:16:53.629Z,100194.50
2022-08-07T07:19:57.837Z,100191.91
2022-08-07T07:22:36.235Z,100189.16
2022-08-07T07:26:30.773Z,100187.19
2022-08-07T07:28:29.589Z,100184.31
2022-08-07T07:31:05.820Z,100181.34
2022-08-07T07:33:36.260Z,100183.88
2022-08-07T07:36:12.812Z,100183.84
2022-08-07T07:38:43.568Z,100182.72
2022-08-07T07:41:16.737Z,100189.97
2022-08-07T07:44:14.314Z,100185.09
2022-08-07T07:46:54.187Z,100182.50
2022-08-07T07:50:34.216Z,100187.59
2022-08-07T07:52:18.075Z,100176.03
2022-08-07T07:54:50.862Z,100180.34
2022-08-07T07:57:44.363Z,100170.59
2022-08-07T08:00:29.135Z,100176.94
2022-08-07T08:03:07.049Z,100175.38
2022-08-07T08:05:50.943Z,100172.28
2022-08-07T08:08:34.763Z,100178.44
2022-08-07T08:11:16.297Z,100167.69
2022-08-07T08:13:53.714Z,100170.06
2022-08-07T08:16:50.568Z,100168.25
2022-08-07T08:20:22.961Z,100169.78
2022-08-07T08:22:35.714Z,100174.34
2022-08-07T08:25:42.157Z,100174.81
2022-08-07T08:28:37.743Z,100166.44
2022-08-07T08:31:14.819Z,100174.78
2022-08-07T08:33:49.680Z,100174.22
2022-08-07T08:36:29.654Z,100179.38
2022-08-07T08:39:02.038Z,100169.63
2022-08-07T08:41:56.769Z,100172.16
2022-08-07T08:44:44.532Z,100175.13
2022-08-07T08:47:25.315Z,100175.28
2022-08-07T08:50:05.008Z,100180.16
2022-08-07T08:52:40.775Z,100189.28
2022-08-07T08:55:53.802Z,100182.31
2022-08-07T08:58:28.342Z,100182.63
2022-08-07T09:01:14.752Z,100174.19
2022-08-07T09:04:04.142Z,100185.09
2022-08-07T09:06:48.158Z,100182.69
2022-08-07T09:09:40.948Z,100166.31
2022-08-07T09:12:53.774Z,100167.66
2022-08-07T09:16:21.957Z,100162.88
2022-08-07T09:18:53.217Z,100160.78
2022-08-07T09:21:34.040Z,100162.13
2022-08-07T09:24:34.081Z,100170.81
2022-08-07T09:27:30.801Z,100158.88
2022-08-07T09:30:09.028Z,100164.44
2022-08-07T09:33:05.290Z,100157.50
2022-08-07T09:36:06.355Z,100155.81
2022-08-07T09:38:54.445Z,100153.84
2022-08-07T09:41:36.377Z,100148.03
2022-08-07T09:44:52.209Z,100140.59
2022-08-07T09:48:11.774Z,100138.94
2022-08-07T09:51:00.102Z,100138.75
2022-08-07T09:53:40.778Z,100142.31
2022-08-07T09:56:49.278Z,100143.22
2022-08-07T10:00:00.627Z,100142.88
2022-08-07T10:02:57.416Z,100137.25
2022-08-07T10:06:32.240Z,100132.59
2022-08-07T10:09:15.157Z,100121.78
2022-08-07T10:12:02.504Z,100126.56
2022-08-07T10:15:20.076Z,100134.81
2022-08-07T10:18:02.931Z,100125.78
2022-08-07T10:20:54.574Z,100119.88
2022-08-07T10:24:06.443Z,100115.19
2022-08-07T10:26:51.627Z,100111.63
2022-08-07T10:29:20.899Z,100112.75
2022-08-07T10:31:49.622Z,100104.84
2022-08-07T10:34:54.217Z,100103.09
2022-08-07T10:37:48.421Z,100102.25
2022-08-07T10:40:23.375Z,100102.03
2022-08-07T10:43:07.546Z,100100.50
2022-08-07T10:45:57.522Z,100094.75
2022-08-07T10:48:48.759Z,100092.53
2022-08-07T10:51:39.113Z,100098.91
2022-08-07T10:54:15.447Z,100098.56
2022-08-07T10:57:11.832Z,100104.41
2022-08-07T11:00:04.295Z,100098.50
2022-08-07T11:02:42.290Z,100088.69
2022-08-07T11:05:51.074Z,100093.56
2022-08-07T11:08:31.461Z,100090.88
2022-08-07T11:11:23.715Z,100077.16
2022-08-07T11:14:44.973Z,100086.47
2022-08-07T11:17:01.086Z,100084.56
2022-08-07T11:19:57.510Z,100069.91
2022-08-07T11:22:45.946Z,100072.41
2022-08-07T11:25:19.729Z,100073.22
2022-08-07T11:28:07.202Z,100071.47
2022-08-07T11:30:47.897Z,100073.88
2022-08-07T11:33:54.331Z,100070.41
2022-08-07T11:36:51.980Z,100049.19
2022-08-07T11:40:00.048Z,100055.13
2022-08-07T11:42:47.854Z,100048.88
2022-08-07T11:45:40.655Z,100033.28
2022-08-07T11:48:31.297Z,100038.41
2022-08-07T11:51:22.866Z,100037.34
2022-08-07T11:54:27.127Z,100031.81
2022-08-07T12:00:28.302Z,100033.66
2022-08-07T12:03:44.667Z,100024.44
2022-08-07T12:07:00.064Z,100016.41
2022-08-07T12:09:48.884Z,100018.34
2022-08-07T12:12:25.330Z,100010.50
2022-08-07T12:15:04.127Z,100010.56
2022-08-07T12:17:57.817Z,100017.56
2022-08-07T12:20:36.398Z,100019.09
2022-08-07T12:23:09.164Z,100009.81
2022-08-07T12:26:03.448Z,100015.63
2022-08-07T12:28:53.228Z,100004.13
2022-08-07T12:31:52.565Z,100012.91
2022-08-07T12:34:21.306Z,100003.44
2022-08-07T12:36:53.455Z,99997.56
2022-08-07T12:39:44.107Z,100003.19
2022-08-07T12:42:13.515Z,99997.41
2022-08-07T12:44:46.503Z,99998.41
2022-08-07T12:47:32.964Z,100009.50
2022-08-07T12:50:38.589Z,99991.31
2022-08-07T12:53:22.937Z,100003.50
2022-08-07T12:56:26.602Z,99994.19
2022-08-07T12:58:57.099Z,99995.50
2022-08-07T13:02:25.032Z,99997.91
2022-08-07T13:05:06.431Z,100003.63
2022-08-07T13:08:18.688Z,100000.31
2022-08-07T13:10:51.718Z,99990.59
2022-08-07T13:13:47.823Z,99996.44
2022-08-07T13:16:31.267Z,99994.00
2022-08-07T13:19:46.313Z,99995.69
2022-08-07T13:22:27.757Z,99988.78
2022-08-07T13:24:59.169Z,99990.50
2022-08-07T13:28:11.458Z,99976.78
2022-08-07T13:30:40.981Z,99978.22
2022-08-07T13:34:31.913Z,99977.84
2022-08-07T13:36:42.640Z,99979.41
2022-08-07T13:40:34.268Z,99978.31
2022-08-07T13:42:21.488Z,99973.00
2022-08-07T13:45:11.550Z,99963.94
2022-08-07T13:48:06.370Z,99961.94
2022-08-07T13:50:34.066Z,99949.03
2022-08-07T13:53:21.829Z,99957.97
2022-08-07T13:55:54.792Z,99957.22
2022-08-07T13:58:56.447Z,99950.38
2022-08-07T14:01:27.792Z,99950.91
2022-08-07T14:04:10.246Z,99949.53
2022-08-07T14:06:43.593Z,99941.44
2022-08-07T14:10:02.987Z,99946.47
2022-08-07T14:12:28.074Z,99949.28
2022-08-07T14:15:03.099Z,99937.47
2022-08-07T14:18:24.255Z,99944.47
2022-08-07T14:20:40.198Z,99944.44
2022-08-07T14:23:58.714Z,99942.56
2022-08-07T14:26:23.645Z,99938.44
2022-08-07T14:29:08.555Z,99941.53
2022-08-07T14:31:42.823Z,99936.78
2022-08-07T14:34:29.169Z,99925.94
2022-08-07T14:37:04.282Z,99923.22
2022-08-07T14:40:16.377Z,99926.94
2022-08-07T14:42:31.289Z,99936.56
2022-08-07T14:45:20.956Z,99921.97
2022-08-07T14:47:58.912Z,99921.41
2022-08-07T14:50:37.584Z,99916.19
2022-08-07T14:53:07.979Z,99913.28
2022-08-07T14:58:31.990Z,99918.34
2022-08-07T15:01:07.539Z,99910.84
2022-08-07T15:03:53.429Z,99913.69
2022-08-07T15:06:27.569Z,99914.97
2022-08-07T15:09:02.934Z,99907.81
2022-08-07T15:12:01.535Z,99907.75
2022-08-07T15:14:30.845Z,99918.47
2022-08-07T15:17:01.142Z,99913.22
2022-08-07T15:22:31.365Z,99905.75
2022-08-07T15:25:18.369Z,99911.91
2022-08-07T15:28:31.011Z,99912.75
2022-08-07T15:31:04.991Z,99898.59
2022-08-07T15:33:33.518Z,99902.66
2022-08-07T15:36:05.675Z,99917.31
2022-08-07T15:38:51.374Z,99917.19
2022-08-07T15:44:20.829Z,99909.91
2022-08-07T15:46:56.791Z,99909.53
2022-08-07T15:50:04.135Z,99903.16
2022-08-07T15:52:30.603Z,99908.69
2022-08-07T15:55:08.855Z,99907.44
2022-08-07T15:57:48.848Z,99899.56
2022-08-07T16:00:31.133Z,99908.06
2022-08-07T16:03:05.029Z,99907.09
2022-08-07T16:05:37.004Z,99905.09
2022-08-07T16:08:33.394Z,99909.19
2022-08-07T16:11:04.720Z,99899.28
2022-08-07T16:14:02.928Z,99906.63
2022-08-07T16:16:56.865Z,99912.91
2022-08-07T16:20:01.773Z,99922.22
2022-08-07T16:22:58.203Z,99919.78
2022-08-07T16:25:52.729Z,99923.47
2022-08-07T16:30:08.828Z,99914.34
2022-08-07T16:31:50.691Z,99917.03
2022-08-07T16:34:49.655Z,99916.66
2022-08-07T16:38:03.571Z,99910.59
2022-08-07T16:41:02.257Z,99903.94
2022-08-07T16:44:47.249Z,99912.91
2022-08-07T16:47:51.147Z,99914.84
2022-08-07T16:50:39.322Z,99911.28
2022-08-07T16:54:02.226Z,99910.91
2022-08-07T16:56:50.042Z,99911.38
2022-08-07T16:59:46.585Z,99907.38
2022-08-07T17:02:52.315Z,99912.91
2022-08-07T17:06:19.636Z,99913.38
2022-08-07T17:08:18.602Z,99910.41
2022-08-07T17:10:57.521Z,99908.31
2022-08-07T17:13:41.557Z,99908.06
2022-08-07T17:16:25.317Z,99917.88
2022-08-07T17:18:52.444Z,99911.53
2022-08-07T17:21:51.110Z,99912.56
2022-08-07T17:25:00.792Z,99912.06
2022-08-07T17:27:59.102Z,99909.75
2022-08-07T17:30:57.482Z,99916.44
2022-08-07T17:34:09.953Z,99915.91
2022-08-07T17:36:27.193Z,99918.28
2022-08-07T17:39:15.659Z,99918.03
2022-08-07T17:42:02.490Z,99917.00
2022-08-07T17:44:45.439Z,99922.34
2022-08-07T17:47:38.540Z,99908.41
2022-08-07T17:50:47.767Z,99920.91
2022-08-07T17:54:00.059Z,99914.53
2022-08-07T17:56:29.145Z,99916.66
2022-08-07T17:58:57.398Z,99912.78
2022-08-07T18:01:37.180Z,99912.38
2022-08-07T18:04:34.564Z,99918.47
2022-08-07T18:07:20.585Z,99911.19
2022-08-07T18:10:06.763Z,99916.69
2022-08-07T18:13:17.168Z,99923.97
2022-08-07T18:15:57.292Z,99925.59
2022-08-07T18:18:46.258Z,99922.50
2022-08-07T18:22:00.515Z,99923.09
2022-08-07T18:24:43.687Z,99933.91
2022-08-07T18:27:38.785Z,99932.28
2022-08-07T18:30:31.340Z,99928.28
2022-08-07T18:33:27.590Z,99940.56
2022-08-07T18:36:16.741Z,99947.69
2022-08-07T18:40:07.484Z,99950.66
2022-08-07T18:42:04.351Z,99948.38
2022-08-07T18:45:44.277Z,99947.78
2022-08-07T18:50:04.982Z,99946.97
2022-08-07T18:52:33.817Z,99949.47
2022-08-07T18:55:43.150Z,99951.19
2022-08-07T18:58:22.441Z,99949.97
2022-08-07T19:01:01.649Z,99959.88
2022-08-07T19:03:52.953Z,99960.41
2022-08-07T19:06:41.163Z,99961.97
2022-08-07T19:09:56.737Z,99966.22
2022-08-07T19:12:53.653Z,99976.38
2022-08-07T19:16:04.588Z,99976.91
2022-08-07T19:19:00.777Z,99969.97
2022-08-07T19:22:04.597Z,99980.88
2022-08-07T19:24:44.757Z,99983.97
2022-08-07T19:28:29.621Z,99987.19
2022-08-07T19:30:56.821Z,99982.72
2022-08-07T19:33:10.374Z,99984.88
2022-08-07T19:35:54.605Z,99982.31
2022-08-07T19:38:28.043Z,99991.34
2022-08-07T19:41:01.503Z,99982.16
2022-08-07T19:43:43.440Z,99994.56
2022-08-07T19:46:26.698Z,99990.81
2022-08-07T19:49:05.124Z,99991.00
2022-08-07T19:51:52.658Z,99992.34
2022-08-07T19:54:33.669Z,99999.59
2022-08-07T19:58:03.350Z,100008.69
2022-08-07T20:00:11.167Z,100006.38
2022-08-07T20:03:03.955Z,100007.63
2022-08-07T20:05:59.600Z,100005.22
2022-08-07T20:08:30.422Z,100007.78
2022-08-07T20:11:10.363Z,100008.03
2022-08-07T20:13:49.890Z,100011.03
2022-08-07T20:16:35.808Z,100009.84
2022-08-07T20:19:12.007Z,100015.22
2022-08-07T20:21:47.411Z,100008.03
2022-08-07T20:24:30.210Z,100005.97
2022-08-07T20:27:02.762Z,100008.53
2022-08-07T20:29:49.434Z,100018.13
2022-08-07T20:32:39.814Z,100007.59
2022-08-07T20:35:12.817Z,100006.72
2022-08-07T20:37:58.756Z,100005.97
2022-08-07T20:40:34.489Z,100000.94
2022-08-07T20:43:14.807Z,99989.94
2022-08-07T20:46:26.440Z,99996.53
2022-08-07T20:49:02.427Z,99987.78
2022-08-07T20:51:35.736Z,99981.44
2022-08-07T20:54:15.136Z,99982.41
2022-08-07T20:57:01.572Z,99989.59
2022-08-07T21:00:07.426Z,99985.72
2022-08-07T21:02:54.117Z,99994.63
2022-08-07T21:05:42.774Z,99999.94
2022-08-07T21:08:14.871Z,100009.69
2022-08-07T21:10:47.039Z,100010.09
2022-08-07T21:13:19.310Z,100008.03
2022-08-07T21:16:00.124Z,100016.47
2022-08-07T21:18:34.245Z,100013.06
2022-08-07T21:21:04.235Z,100016.47
2022-08-07T21:23:50.466Z,100023.09
2022-08-07T21:26:35.670Z,100023.63
2022-08-07T21:29:33.644Z,100017.09
2022-08-07T21:32:47.430Z,100019.16
2022-08-07T21:35:10.785Z,100015.25
2022-08-07T21:37:58.020Z,100017.72
2022-08-07T21:40:49.458Z,100015.50
2022-08-07T21:43:23.438Z,100018.31
2022-08-07T21:46:10.452Z,100021.88
2022-08-07T21:48:43.988Z,100028.66
2022-08-07T21:51:33.664Z,100024.91
2022-08-07T21:54:33.848Z,100026.06
2022-08-07T21:57:30.838Z,100026.88
2022-08-07T22:00:05.511Z,100031.81
2022-08-07T22:02:59.234Z,100020.13
2022-08-07T22:05:45.984Z,100014.91
2022-08-07T22:08:21.621Z,100015.53
2022-08-07T22:10:58.034Z,100012.22
2022-08-07T22:13:51.882Z,100009.34
2022-08-07T22:16:39.685Z,100005.03
2022-08-07T22:19:23.635Z,100010.47
2022-08-07T22:22:21.295Z,100007.50
2022-08-07T22:25:02.921Z,100007.84
2022-08-07T22:28:07.925Z,100004.16
2022-08-07T22:31:56.074Z,100001.56
2022-08-07T22:34:17.439Z,100008.16
2022-08-07T22:37:16.531Z,99994.72
2022-08-07T22:40:01.863Z,100008.19
2022-08-07T22:42:35.157Z,100014.78
2022-08-07T22:45:11.044Z,100016.50
2022-08-07T22:48:31.340Z,100011.09
2022-08-07T22:51:11.930Z,100010.56
2022-08-07T22:54:18.903Z,100004.84
2022-08-07T22:57:05.452Z,100000.91
2022-08-07T22:59:38.829Z,100003.19
2022-08-07T23:02:25.209Z,100007.53
2022-08-07T23:06:07.730Z,100000.81
2022-08-07T23:08:24.007Z,100007.91
2022-08-07T23:11:22.656Z,100003.63
2022-08-07T23:14:27.187Z,99997.66
2022-08-07T23:17:19.951Z,99984.75
2022-08-07T23:20:40.621Z,99991.50
2022-08-07T23:24:06.857Z,99993.94
2022-08-07T23:26:23.422Z,99987.56
2022-08-07T23:28:57.950Z,99993.34
2022-08-07T23:32:50.198Z,99984.56
2022-08-07T23:34:51.754Z,99989.06
2022-08-07T23:38:01.646Z,99995.59
2022-08-07T23:40:41.795Z,99989.25
2022-08-07T23:43:43.817Z,99990.16
2022-08-07T23:46:33.709Z,99983.47
2022-08-07T23:49:49.854Z,99989.97
2022-08-07T23:53:11.737Z,99987.00
2022-08-07T23:55:46.954Z,99990.53
2022-08-07T23:58:24.190Z,99989.56
